Content
SEND FEEDBACK

United States of America Flag

CHICAGO, ILLINOIS


Home > North America > United States > Illinois
Elevation: 205 meters     Latitude: 41 59N     Longitude: 087 54W

WEATHER
 
SELECT A DAY
Number of Records: 213,093;   Date Range: 7/8/95 - 3/22/16
 
SHARE

PRINT THIS DATA

[ ← Previous Day ]
WEATHER ALMANAC - 15 JULY, 2013
[ Next Day → ]
[ °F ]   °C
We're sorry. There is no daily almanac available for Chicago, Illinois on 15 July, 2013.
WEATHER BY HOUR - 15 JULY, 2013
[ °F ]   °C
Local TimeTemperatureDewpointHumidityBarometerVisibilityWind DirectionWind SpeedGust SpeedPrecipitationEventsConditions
1:52 AM22.2 °C19.4 °C84 %1023.7 hPa14.5 kmCalmClear
2:52 AM22.8 °C20 °C84 %1023.7 hPa14.5 kmCalmClear
3:52 AM22.2 °C20 °C87 %1024 hPa12.9 kmNNW (340°)5.6 km/hClear
4:52 AM22.2 °C20 °C87 %1024 hPa11.3 kmCalmClear
5:52 AM22.2 °C20 °C87 %1024.4 hPa8 kmCalmClear
6:52 AM24.4 °C21.1 °C82 %1024.7 hPa11.3 kmCalmClear
7:52 AM26.7 °C21.7 °C74 %1024.7 hPa12.9 kmCalmClear
8:52 AM28.3 °C22.2 °C69 %1025.1 hPa14.5 kmCalmClear
9:52 AM30.6 °C22.8 °C63 %1025.1 hPa16.1 kmCalmClear
10:52 AM31.1 °C22.8 °C61 %1025.1 hPa16.1 kmEast (80°)9.3 km/hPartly Cloudy
11:52 AM30.6 °C21.7 °C59 %1024.7 hPa16.1 kmENE (70°)11.1 km/hMostly Cloudy
12:52 PM28.3 °C22.8 °C72 %1025.1 hPa16.1 kmENE (60°)9.3 km/h0.25 mmOvercast
1:52 PM30 °C22.8 °C65 %1024.7 hPa16.1 kmEast (80°)9.3 km/hPartly Cloudy
2:52 PM30.6 °C21.7 °C59 %1024.4 hPa16.1 kmEast (100°)13 km/hScattered Clouds
3:52 PM31.1 °C22.2 °C59 %1024.4 hPa16.1 kmENE (70°)9.3 km/hMostly Cloudy
4:52 PM30 °C22.2 °C63 %1024 hPa16.1 kmEast (80°)7.4 km/hMostly Cloudy
5:52 PM28.9 °C22.2 °C67 %1023.7 hPa16.1 kmENE (70°)5.6 km/h0 mmOvercast
6:52 PM28.9 °C22.2 °C67 %1023.7 hPa16.1 kmEast (80°)7.4 km/hMostly Cloudy
7:52 PM27.8 °C22.2 °C71 %1023.7 hPa16.1 kmEast (90°)9.3 km/hPartly Cloudy
8:52 PM26.7 °C22.2 °C76 %1024 hPa16.1 kmCalmMostly Cloudy
9:52 PM26.1 °C22.8 °C82 %1024.7 hPa14.5 kmCalmOvercast
10:52 PM26.1 °C22.8 °C82 %1024.7 hPa16.1 kmCalmClear
11:52 PM25.6 °C22.2 °C81 %1024.7 hPa16.1 kmSSE (150°)5.6 km/hClear
Hourly data recorded from KPWK, located 0 kilometers away from Chicago, Illinois




STORIES FROM OUR PARTNERS